Time;durP1;ratioP1;P1;durP2;ratioP2;P2;SDS_P1;SDS_P2;PMS_P1;PMS_P2;Temp;Humidity;BMP_temperature;BMP_pressure;BME280_temperature;BME280_humidity;BME280_pressure;Samples;Min_cycle;Max_cycle;Signal;HPM_P1;HPM_P2
2022/07/15 00:01:18;;;;;;;5.32;1.55;;;15.90;99.90;;;;;;4994642;28;20145;-76
2022/07/15 00:03:46;;;;;;;6.10;1.70;;;15.80;99.90;;;;;;5012633;28;20054;-76
2022/07/15 00:06:14;;;;;;;7.07;1.38;;;15.80;99.90;;;;;;5013150;28;20050;-76
2022/07/15 00:08:42;;;;;;;5.22;1.60;;;15.80;99.90;;;;;;4995348;28;20145;-76
2022/07/15 00:11:10;;;;;;;12.48;1.92;;;15.80;99.90;;;;;;4995181;28;20050;-75
2022/07/15 00:13:38;;;;;;;8.00;1.33;;;15.70;99.90;;;;;;4995024;28;20046;-76
2022/07/15 00:16:06;;;;;;;15.13;2.78;;;15.80;99.90;;;;;;4994820;28;20050;-76
2022/07/15 00:18:35;;;;;;;11.57;2.25;;;15.70;99.90;;;;;;4995264;28;20045;-76
2022/07/15 00:21:03;;;;;;;17.17;1.85;;;15.70;99.90;;;;;;5012756;28;20642;-76
2022/07/15 00:23:31;;;;;;;19.13;2.90;;;15.70;99.90;;;;;;5011492;28;20056;-75
2022/07/15 00:25:59;;;;;;;24.90;3.42;;;15.60;99.90;;;;;;5012335;28;20052;-75
2022/07/15 00:28:28;;;;;;;18.65;2.55;;;15.60;99.90;;;;;;4995153;28;20583;-76
2022/07/15 00:30:56;;;;;;;29.88;3.72;;;15.60;99.90;;;;;;4994850;28;20120;-76
2022/07/15 00:33:24;;;;;;;33.08;4.40;;;15.60;99.90;;;;;;4978340;28;20046;-77
2022/07/15 00:35:54;;;;;;;43.80;4.32;;;15.60;99.90;;;;;;4994583;28;20173;-76
2022/07/15 00:38:21;;;;;;;31.00;4.30;;;15.50;99.90;;;;;;4994926;28;20145;-76
2022/07/15 00:40:51;;;;;;;61.08;7.07;;;15.50;99.90;;;;;;4994300;28;20054;-77
2022/07/15 00:43:20;;;;;;;44.42;5.68;;;15.50;99.90;;;;;;4994321;28;20253;-77
2022/07/15 00:45:48;;;;;;;29.30;3.72;;;15.50;99.90;;;;;;4977958;28;20546;-77
2022/07/15 00:48:16;;;;;;;23.52;3.35;;;15.40;99.90;;;;;;4994126;28;20050;-77
2022/07/15 00:50:44;;;;;;;30.38;4.57;;;15.40;99.90;;;;;;5011153;28;20050;-75
2022/07/15 00:53:18;;;;;;;12.05;3.13;;;15.40;99.90;;;;;;4977948;28;20046;-77
2022/07/15 00:55:48;;;;;;;24.92;2.70;;;15.40;99.90;;;;;;4994556;28;20426;-75
2022/07/15 00:58:19;;;;;;;9.73;2.25;;;15.40;99.90;;;;;;4993658;28;20054;-76
2022/07/15 01:00:49;;;;;;;22.80;2.88;;;15.40;99.90;;;;;;4977978;28;20062;-76
2022/07/15 01:03:19;;;;;;;23.20;2.25;;;15.40;99.90;;;;;;4994482;28;20141;-76
2022/07/15 01:05:49;;;;;;;17.13;2.60;;;15.30;99.90;;;;;;4994117;28;20125;-77
2022/07/15 01:08:19;;;;;;;18.13;2.88;;;15.30;99.90;;;;;;5010515;28;20117;-77
2022/07/15 01:10:49;;;;;;;26.15;5.78;;;15.30;99.90;;;;;;5011378;28;20057;-77
2022/07/15 01:13:18;;;;;;;20.92;2.92;;;15.30;99.90;;;;;;5010331;28;20042;-77
2022/07/15 01:15:46;;;;;;;20.50;3.58;;;15.30;99.90;;;;;;4994616;28;20056;-76
2022/07/15 01:18:14;;;;;;;13.60;1.95;;;15.30;99.90;;;;;;4994308;28;20053;-76
2022/07/15 01:20:47;;;;;;;16.63;2.97;;;15.30;99.90;;;;;;4977992;28;20046;-76
2022/07/15 01:23:16;;;;;;;6.22;2.05;;;15.30;99.90;;;;;;5010349;28;20100;-76
2022/07/15 01:26:07;;;;;;;11.32;3.22;;;15.30;99.90;;;;;;5003241;28;20057;-76
2022/07/15 01:28:36;;;;;;;6.93;1.40;;;15.20;99.90;;;;;;4994259;28;20054;-76
2022/07/15 01:31:04;;;;;;;10.35;1.67;;;15.20;99.90;;;;;;4993671;28;20054;-75
2022/07/15 01:33:34;;;;;;;8.15;1.65;;;15.20;99.90;;;;;;5010382;28;20060;-76
2022/07/15 01:36:04;;;;;;;6.70;1.70;;;15.20;99.90;;;;;;4977159;28;20046;-77
2022/07/15 01:38:34;;;;;;;12.23;1.75;;;15.10;99.90;;;;;;5010245;28;20462;-76
2022/07/15 01:41:04;;;;;;;4.40;1.65;;;15.10;99.90;;;;;;4977383;28;20076;-76
2022/07/15 01:43:32;;;;;;;10.30;1.80;;;15.10;99.90;;;;;;4993397;28;20057;-77
2022/07/15 01:46:00;;;;;;;9.55;1.45;;;15.10;99.90;;;;;;4993094;28;20056;-76
2022/07/15 01:51:43;;;;;;;10.85;1.30;;;15.10;99.90;;;;;;4992300;28;20053;-76
2022/07/15 01:54:11;;;;;;;6.78;1.38;;;15.10;99.90;;;;;;5010102;28;20141;-77
2022/07/15 01:56:38;;;;;;;15.63;2.38;;;15.10;99.90;;;;;;5010223;28;20069;-76
2022/07/15 01:59:07;;;;;;;13.57;1.70;;;15.10;99.90;;;;;;4993271;28;20132;-76
2022/07/15 02:01:35;;;;;;;16.05;2.17;;;15.10;99.90;;;;;;4993069;28;20057;-75
2022/07/15 02:04:08;;;;;;;7.00;1.50;;;15.10;99.90;;;;;;4993150;28;20438;-75
2022/07/15 02:06:36;;;;;;;6.93;1.65;;;15.10;99.90;;;;;;4976283;28;20520;-77
2022/07/15 02:09:06;;;;;;;7.38;3.50;;;15.10;99.90;;;;;;4976493;28;20092;-77
2022/07/15 02:11:38;;;;;;;8.25;1.33;;;15.10;99.90;;;;;;4992527;28;20046;-75
2022/07/15 02:14:08;;;;;;;10.30;1.30;;;15.10;99.90;;;;;;5008214;28;20561;-76
2022/07/15 02:16:36;;;;;;;5.90;1.50;;;15.10;99.90;;;;;;4992649;28;20473;-76
2022/07/15 02:19:08;;;;;;;3.85;1.17;;;15.10;99.90;;;;;;4976523;28;20057;-77
2022/07/15 02:21:37;;;;;;;3.38;1.38;;;15.10;99.90;;;;;;4992361;28;20049;-76
2022/07/15 02:24:07;;;;;;;3.53;1.75;;;15.10;99.90;;;;;;4992051;28;20057;-77
2022/07/15 02:26:36;;;;;;;2.40;1.13;;;15.20;99.90;;;;;;5009875;28;20076;-77
2022/07/15 02:29:04;;;;;;;10.25;1.27;;;15.30;99.90;;;;;;5009613;28;20046;-77
2022/07/15 02:31:32;;;;;;;4.25;0.90;;;15.40;99.90;;;;;;4992724;28;20046;-77
2022/07/15 02:34:00;;;;;;;4.85;1.60;;;15.40;99.90;;;;;;4976987;28;20104;-77
2022/07/15 02:36:29;;;;;;;5.40;1.40;;;15.50;99.90;;;;;;4976027;28;20050;-77
2022/07/15 02:38:58;;;;;;;8.13;1.98;;;15.50;99.90;;;;;;4976899;28;20054;-77
2022/07/15 02:41:28;;;;;;;8.68;1.60;;;15.60;99.90;;;;;;5009090;28;20050;-77
2022/07/15 02:43:56;;;;;;;17.48;1.90;;;15.60;99.90;;;;;;5010433;28;20485;-77
2022/07/15 02:46:24;;;;;;;7.32;1.20;;;15.60;99.90;;;;;;5008885;28;20134;-77
2022/07/15 02:48:53;;;;;;;4.80;1.77;;;15.50;99.90;;;;;;4992606;28;20050;-77
2022/07/15 02:51:23;;;;;;;12.45;1.90;;;15.50;99.90;;;;;;5008683;28;20141;-76
2022/07/15 02:53:51;;;;;;;4.60;1.40;;;15.50;99.90;;;;;;5008741;28;20068;-76
2022/07/15 02:56:23;;;;;;;7.90;1.30;;;15.50;99.90;;;;;;5009294;28;20502;-76
2022/07/15 02:58:52;;;;;;;5.53;1.35;;;15.50;99.90;;;;;;5008613;28;20484;-77
2022/07/15 03:01:20;;;;;;;10.27;1.75;;;15.50;99.90;;;;;;4992397;28;20054;-77
2022/07/15 03:03:49;;;;;;;12.68;1.40;;;15.50;99.90;;;;;;5009105;28;20084;-77
2022/07/15 03:06:22;;;;;;;8.05;1.65;;;15.50;99.90;;;;;;5008439;28;20056;-77
2022/07/15 03:08:50;;;;;;;7.80;1.40;;;15.60;99.90;;;;;;4976041;28;20045;-77
2022/07/15 03:11:20;;;;;;;8.10;1.42;;;15.60;99.90;;;;;;4992193;28;20038;-77
2022/07/15 03:13:51;;;;;;;9.68;2.22;;;15.60;99.90;;;;;;4975916;28;20088;-77
2022/07/15 03:16:20;;;;;;;9.73;1.70;;;15.60;99.90;;;;;;4991682;28;20072;-77
2022/07/15 03:18:51;;;;;;;10.65;1.73;;;15.70;99.90;;;;;;4992313;28;20049;-78
2022/07/15 03:21:21;;;;;;;11.00;1.98;;;15.70;99.90;;;;;;4991546;28;20050;-77
2022/07/15 03:23:50;;;;;;;7.82;1.85;;;15.80;99.90;;;;;;5008556;28;20137;-77
2022/07/15 03:26:18;;;;;;;9.07;1.70;;;15.80;99.90;;;;;;4995440;28;20046;-77
2022/07/15 03:28:46;;;;;;;7.53;1.40;;;15.80;99.90;;;;;;4996299;28;20394;-77
2022/07/15 03:31:16;;;;;;;6.20;1.52;;;15.90;99.90;;;;;;4979962;28;20103;-76
2022/07/15 03:33:44;;;;;;;11.30;1.98;;;16.00;99.90;;;;;;5011831;28;20137;-77
2022/07/15 03:36:13;;;;;;;7.03;1.48;;;16.00;99.90;;;;;;5013246;28;20060;-77
2022/07/15 03:38:41;;;;;;;7.47;1.42;;;16.10;99.90;;;;;;4979380;28;20112;-76
2022/07/15 03:41:09;;;;;;;11.13;1.73;;;16.10;99.90;;;;;;5012952;28;20576;-77
2022/07/15 03:43:38;;;;;;;12.43;1.88;;;16.10;99.90;;;;;;5012059;28;20050;-77
2022/07/15 03:46:06;;;;;;;7.15;1.48;;;16.10;99.90;;;;;;4995962;28;20054;-79
2022/07/15 03:48:37;;;;;;;3.53;1.40;;;16.10;99.90;;;;;;5011835;28;20056;-77
2022/07/15 03:51:06;;;;;;;6.60;1.80;;;16.20;99.90;;;;;;4979003;28;20046;-77
2022/07/15 03:53:34;;;;;;;8.65;1.65;;;16.10;99.90;;;;;;4995014;28;20068;-77
2022/07/15 03:56:02;;;;;;;10.35;2.33;;;16.10;99.90;;;;;;4994449;28;20598;-78
2022/07/15 03:58:30;;;;;;;9.68;2.17;;;16.20;99.90;;;;;;5012557;28;20050;-78
2022/07/15 04:00:58;;;;;;;8.02;2.15;;;16.20;99.90;;;;;;4978269;28;20506;-78
2022/07/15 04:03:28;;;;;;;2.95;1.52;;;16.20;99.90;;;;;;5011197;28;20078;-78
2022/07/15 04:05:57;;;;;;;2.08;1.33;;;16.30;99.90;;;;;;4995028;28;20045;-78
2022/07/15 04:08:25;;;;;;;8.98;1.42;;;16.30;99.90;;;;;;5012393;28;20060;-78
2022/07/15 04:10:53;;;;;;;6.00;1.67;;;16.30;99.90;;;;;;4978282;28;20142;-78
2022/07/15 04:13:20;;;;;;;4.97;1.80;;;16.20;99.90;;;;;;5010505;28;20046;-78
2022/07/15 04:15:48;;;;;;;5.53;1.67;;;16.30;99.90;;;;;;4977960;28;20613;-78
2022/07/15 04:18:16;;;;;;;5.53;2.28;;;16.40;99.90;;;;;;4994299;28;20466;-78
2022/07/15 04:20:44;;;;;;;3.42;1.50;;;16.40;99.90;;;;;;4994285;28;20065;-77
2022/07/15 04:23:14;;;;;;;5.65;1.80;;;16.60;99.90;;;;;;5010414;28;20108;-79
2022/07/15 04:25:41;;;;;;;8.48;1.70;;;16.70;99.90;;;;;;4995052;28;20061;-77
2022/07/15 04:28:10;;;;;;;4.85;1.77;;;16.80;99.90;;;;;;5011345;28;20673;-77
2022/07/15 04:30:39;;;;;;;6.72;1.67;;;17.00;99.90;;;;;;4994958;28;20054;-77
2022/07/15 04:33:06;;;;;;;7.47;1.80;;;17.10;99.90;;;;;;4994927;28;20050;-77
2022/07/15 04:35:38;;;;;;;8.50;2.00;;;17.30;99.90;;;;;;4994863;28;20144;-77
2022/07/15 04:38:07;;;;;;;6.18;2.92;;;17.40;99.90;;;;;;5010671;28;20115;-77
2022/07/15 04:40:39;;;;;;;4.35;1.10;;;17.50;99.90;;;;;;4977947;28;20491;-77
2022/07/15 04:43:07;;;;;;;3.97;1.88;;;17.60;99.90;;;;;;5010380;28;20116;-76
2022/07/15 04:45:35;;;;;;;9.30;4.28;;;17.70;99.90;;;;;;5011753;28;20056;-77
2022/07/15 04:50:45;;;;;;;6.07;2.03;;;17.70;99.90;;;;;;5010498;28;20320;-78
2022/07/15 04:50:53;;;;;;;8.27;2.67;;;17.70;99.90;;;;;;4994017;28;20050;-77
2022/07/15 04:53:26;;;;;;;11.77;3.80;;;17.80;99.90;;;;;;4993564;28;20189;-76
2022/07/15 04:55:56;;;;;;;3.05;1.25;;;17.80;99.90;;;;;;4993925;28;20049;-77
2022/07/15 04:58:24;;;;;;;5.18;1.30;;;17.80;99.90;;;;;;5011492;28;20510;-77
2022/07/15 05:00:52;;;;;;;4.30;1.20;;;17.90;99.90;;;;;;4993742;28;20128;-78
2022/07/15 05:03:21;;;;;;;1.95;1.35;;;17.90;99.90;;;;;;4977699;28;20387;-77
2022/07/15 05:05:49;;;;;;;8.40;2.65;;;18.00;99.90;;;;;;4993861;28;20042;-77
2022/07/15 05:08:21;;;;;;;5.45;1.33;;;18.00;99.90;;;;;;5009856;28;20540;-77
2022/07/15 05:10:55;;;;;;;7.63;2.80;;;18.00;99.90;;;;;;4993350;28;20045;-77
2022/07/15 05:13:23;;;;;;;3.47;1.30;;;18.00;99.90;;;;;;5011339;28;20061;-77
2022/07/15 05:15:51;;;;;;;3.60;1.20;;;17.90;99.90;;;;;;4993965;28;20057;-78
2022/07/15 05:18:23;;;;;;;3.35;1.05;;;18.00;99.90;;;;;;4993510;28;20058;-78
2022/07/15 05:20:53;;;;;;;6.40;1.60;;;18.00;99.90;;;;;;4993961;28;20072;-78
2022/07/15 05:23:24;;;;;;;3.13;1.08;;;18.00;99.90;;;;;;5010749;28;20506;-78
2022/07/15 05:25:58;;;;;;;5.85;1.83;;;18.10;99.90;;;;;;4993450;28;20614;-78
2022/07/15 05:28:25;;;;;;;3.20;1.20;;;18.10;99.90;;;;;;4993592;28;20057;-78
2022/07/15 05:30:54;;;;;;;5.35;1.50;;;18.10;99.90;;;;;;4993170;28;20106;-77
2022/07/15 05:33:22;;;;;;;6.50;1.35;;;18.30;99.90;;;;;;4992963;28;20101;-77
2022/07/15 05:35:54;;;;;;;2.38;1.10;;;18.50;99.90;;;;;;5009849;28;20054;-77
2022/07/15 05:38:25;;;;;;;0.70;0.68;;;18.80;99.90;;;;;;4993412;28;20253;-78
2022/07/15 05:41:01;;;;;;;3.03;1.40;;;19.10;99.90;;;;;;4977161;28;20050;-78
2022/07/15 05:43:37;;;;;;;3.60;1.08;;;19.60;99.90;;;;;;5010453;28;20483;-78
2022/07/15 05:46:06;;;;;;;3.83;0.90;;;19.70;99.90;;;;;;4993244;28;20073;-78
2022/07/15 05:48:44;;;;;;;5.80;2.05;;;19.90;99.90;;;;;;4993116;28;20510;-78
2022/07/15 05:51:12;;;;;;;3.45;0.93;;;20.50;99.90;;;;;;5010718;28;20050;-76
2022/07/15 05:53:39;;;;;;;3.60;0.82;;;20.80;99.90;;;;;;5009539;28;20514;-76
2022/07/15 05:56:10;;;;;;;0.77;0.65;;;20.80;99.90;;;;;;5009619;28;20084;-77
2022/07/15 05:58:38;;;;;;;2.10;0.70;;;20.70;99.90;;;;;;5009865;28;20056;-78
2022/07/15 06:01:07;;;;;;;1.98;1.25;;;20.50;99.90;;;;;;5009743;28;20053;-77
2022/07/15 06:03:40;;;;;;;1.70;0.90;;;20.40;99.90;;;;;;4977051;28;20128;-77
2022/07/15 06:06:08;;;;;;;1.80;0.68;;;21.00;99.90;;;;;;5010499;28;20100;-77
2022/07/15 06:08:38;;;;;;;3.50;0.70;;;21.60;99.90;;;;;;4992885;28;20070;-77
2022/07/15 06:11:08;;;;;;;1.80;0.95;;;22.10;99.90;;;;;;5009192;28;20060;-78
2022/07/15 06:13:39;;;;;;;6.22;1.35;;;22.80;99.90;;;;;;5009055;28;20061;-79
2022/07/15 06:16:09;;;;;;;2.03;0.68;;;23.20;99.90;;;;;;5009927;28;20514;-79
2022/07/15 06:18:37;;;;;;;2.05;0.70;;;23.80;99.90;;;;;;5009377;28;20072;-77
2022/07/15 06:21:05;;;;;;;2.83;0.75;;;23.70;97.50;;;;;;4992296;28;20050;-79
2022/07/15 06:23:34;;;;;;;3.13;0.98;;;23.30;95.40;;;;;;4976326;28;20048;-78
2022/07/15 06:26:02;;;;;;;2.20;1.38;;;22.90;95.50;;;;;;5010376;28;20462;-79
2022/07/15 06:28:30;;;;;;;2.72;0.60;;;22.60;96.60;;;;;;5010518;28;20108;-78
2022/07/15 06:30:59;;;;;;;2.80;0.50;;;22.60;99.90;;;;;;5008895;28;20050;-78
2022/07/15 06:33:27;;;;;;;0.98;0.82;;;23.20;99.90;;;;;;5008829;28;20044;-78
2022/07/15 06:35:55;;;;;;;2.58;0.65;;;24.00;95.70;;;;;;5008425;28;20054;-78
2022/07/15 06:38:23;;;;;;;1.23;0.65;;;24.10;92.90;;;;;;5008466;28;20058;-78
2022/07/15 06:40:52;;;;;;;0.98;0.60;;;24.40;92.40;;;;;;4992385;28;20132;-77
2022/07/15 06:43:20;;;;;;;2.17;0.70;;;25.10;91.70;;;;;;5008627;28;20429;-79
2022/07/15 06:46:10;;;;;;;3.72;0.73;;;25.80;84.20;;;;;;4992364;28;20054;-79
2022/07/15 06:48:41;;;;;;;2.90;0.68;;;26.10;83.60;;;;;;4992970;28;20053;-78
2022/07/15 06:51:10;;;;;;;1.42;0.60;;;26.20;79.40;;;;;;5010050;28;20072;-79
2022/07/15 06:53:38;;;;;;;5.10;1.92;;;26.60;78.00;;;;;;4976126;28;20510;-79
2022/07/15 06:56:07;;;;;;;1.35;0.80;;;27.00;72.90;;;;;;4992226;28;20172;-78
2022/07/15 06:58:35;;;;;;;0.93;0.70;;;27.00;75.10;;;;;;4992246;28;20524;-78
2022/07/15 07:01:03;;;;;;;2.05;0.82;;;27.50;70.40;;;;;;4995433;28;20046;-78
2022/07/15 07:03:32;;;;;;;0.70;0.70;;;28.10;68.20;;;;;;4979739;28;20531;-79
2022/07/15 07:06:00;;;;;;;4.72;0.77;;;28.30;67.00;;;;;;4995856;28;20053;-79
2022/07/15 07:08:28;;;;;;;4.95;1.25;;;28.20;65.00;;;;;;5011828;28;20410;-79
2022/07/15 07:10:57;;;;;;;8.90;1.60;;;28.30;64.90;;;;;;4996096;28;20100;-77
2022/07/15 07:13:25;;;;;;;3.70;0.90;;;28.30;63.20;;;;;;5013307;28;20177;-80
2022/07/15 07:15:53;;;;;;;2.80;0.75;;;28.10;62.20;;;;;;4998108;28;20061;-79
2022/07/15 07:18:21;;;;;;;2.17;0.60;;;28.00;61.70;;;;;;4993889;28;20055;-79
2022/07/15 07:20:50;;;;;;;2.58;0.68;;;27.60;60.90;;;;;;4976411;28;20050;-78
2022/07/15 07:23:18;;;;;;;1.83;0.50;;;27.50;59.30;;;;;;4992651;28;20062;-79
2022/07/15 07:25:45;;;;;;;1.40;0.70;;;27.50;59.90;;;;;;4992826;28;20046;-78
2022/07/15 07:28:13;;;;;;;4.80;0.65;;;27.70;61.30;;;;;;4976179;28;20078;-79
2022/07/15 07:30:41;;;;;;;4.68;0.88;;;27.80;59.00;;;;;;4981333;28;20050;-79
2022/07/15 07:33:09;;;;;;;0.85;0.60;;;27.30;59.40;;;;;;4985084;28;20046;-79
2022/07/15 07:35:37;;;;;;;1.33;0.40;;;26.40;63.40;;;;;;4975824;28;20614;-79
2022/07/15 07:38:06;;;;;;;1.40;0.80;;;25.30;61.30;;;;;;4975282;28;20048;-79
2022/07/15 07:40:34;;;;;;;1.48;0.80;;;25.00;66.30;;;;;;4997551;28;20466;-79
2022/07/15 07:43:02;;;;;;;6.75;0.77;;;24.90;65.70;;;;;;4982994;28;20050;-78
2022/07/15 07:45:30;;;;;;;4.22;0.80;;;25.10;64.80;;;;;;4968240;28;20152;-78
2022/07/15 07:47:58;;;;;;;1.27;0.60;;;25.50;64.60;;;;;;5008085;28;20085;-81
2022/07/15 07:50:26;;;;;;;1.05;0.43;;;24.90;60.10;;;;;;4979578;28;20058;-79
2022/07/15 07:52:55;;;;;;;0.95;0.60;;;23.90;63.50;;;;;;4978749;28;20042;-81
2022/07/15 07:55:24;;;;;;;0.70;0.68;;;23.40;62.60;;;;;;5004360;28;20097;-81
2022/07/15 07:57:56;;;;;;;0.70;0.50;;;22.90;65.30;;;;;;4989044;28;20077;-82
2022/07/15 08:00:26;;;;;;;;;;;22.60;67.70;;;;;;4964123;28;20069;-82
2022/07/15 08:02:55;;;;;;;0.40;0.40;;;22.30;66.90;;;;;;4994070;28;20432;-81
2022/07/15 08:05:24;;;;;;;1.33;0.80;;;22.20;69.00;;;;;;4980153;28;20089;-82
2022/07/15 08:07:52;;;;;;;0.73;0.70;;;22.20;69.60;;;;;;4980111;28;20074;-81
2022/07/15 08:10:20;;;;;;;0.68;0.47;;;22.20;70.90;;;;;;4985391;28;20076;-82
2022/07/15 08:12:50;;;;;;;1.70;0.70;;;22.20;70.40;;;;;;4986107;28;20045;-83
2022/07/15 08:15:19;;;;;;;2.83;0.70;;;22.20;70.20;;;;;;5014497;28;20060;-81
2022/07/15 08:17:47;;;;;;;0.50;0.30;;;22.20;71.20;;;;;;5014153;28;20050;-82
2022/07/15 08:20:15;;;;;;;3.17;0.70;;;22.20;68.10;;;;;;4992399;28;20070;-82
2022/07/15 08:22:43;;;;;;;2.10;0.68;;;22.10;69.10;;;;;;4978396;28;20101;-82
2022/07/15 08:25:11;;;;;;;3.30;0.57;;;21.90;71.80;;;;;;4992343;28;20495;-82
2022/07/15 08:27:39;;;;;;;1.70;0.70;;;21.80;72.50;;;;;;4959415;28;20482;-82
2022/07/15 08:30:09;;;;;;;3.55;1.20;;;22.20;74.10;;;;;;4972598;28;20051;-81
2022/07/15 08:32:37;;;;;;;3.85;0.60;;;23.20;74.40;;;;;;4974495;28;20080;-83
2022/07/15 08:35:06;;;;;;;1.88;0.52;;;24.50;67.40;;;;;;5010358;28;20097;-83
2022/07/15 08:37:34;;;;;;;2.15;0.70;;;24.80;65.30;;;;;;5006544;28;20098;-82
2022/07/15 08:40:04;;;;;;;1.17;0.70;;;25.00;65.30;;;;;;4983696;28;20049;-82
2022/07/15 08:42:32;;;;;;;0.77;0.57;;;24.80;67.30;;;;;;5001427;28;20058;-82
2022/07/15 08:44:59;;;;;;;1.95;0.40;;;25.50;65.60;;;;;;4981137;28;20504;-82
2022/07/15 08:47:35;;;;;;;1.67;0.57;;;26.80;58.70;;;;;;4986155;28;20061;-81
2022/07/15 08:50:06;;;;;;;0.40;0.40;;;27.70;55.10;;;;;;5001485;28;20041;-83
2022/07/15 08:52:35;;;;;;;1.30;0.50;;;28.30;55.10;;;;;;5001714;28;20092;-83
2022/07/15 08:55:03;;;;;;;2.88;0.68;;;28.70;56.60;;;;;;5004004;28;20058;-82
2022/07/15 08:57:31;;;;;;;0.60;0.30;;;28.80;56.70;;;;;;4996908;28;20093;-82
2022/07/15 08:59:59;;;;;;;2.63;0.55;;;28.70;55.70;;;;;;4999343;28;20110;-84
2022/07/15 09:02:28;;;;;;;1.63;0.88;;;28.30;56.60;;;;;;5000503;28;20112;-83
2022/07/15 09:05:23;;;;;;;3.55;1.33;;;27.40;55.60;;;;;;4982580;28;20140;-82
2022/07/15 09:07:54;;;;;;;0.50;0.50;;;26.20;59.30;;;;;;5000162;28;20458;-82
2022/07/15 09:10:23;;;;;;;1.50;0.60;;;25.80;60.30;;;;;;4981843;28;20053;-82
2022/07/15 09:12:53;;;;;;;0.75;0.75;;;25.40;61.80;;;;;;4998562;28;20050;-81
2022/07/15 09:15:35;;;;;;;3.22;0.90;;;25.10;64.10;;;;;;4983303;28;20054;-81
2022/07/15 09:18:13;;;;;;;;;;;24.60;66.70;;;;;;4999185;28;20154;-81
2022/07/15 09:20:44;;;;;;;3.78;0.80;;;24.30;69.30;;;;;;4993099;28;20448;-82
2022/07/15 09:23:17;;;;;;;1.85;0.73;;;23.80;70.50;;;;;;4975465;28;20483;-80
2022/07/15 09:25:46;;;;;;;2.50;1.05;;;23.30;70.50;;;;;;4992966;28;20062;-81
2022/07/15 09:28:14;;;;;;;1.65;1.17;;;22.90;72.20;;;;;;4993750;28;20050;-81
2022/07/15 09:33:37;;;;;;;3.70;0.75;;;22.30;74.40;;;;;;4992924;28;20050;-82
2022/07/15 09:36:13;;;;;;;5.78;1.20;;;22.10;76.60;;;;;;4992491;28;20088;-80
2022/07/15 09:38:48;;;;;;;7.55;1.38;;;22.00;77.70;;;;;;4965660;28;20057;-81
2022/07/15 09:41:28;;;;;;;4.68;1.10;;;22.10;79.00;;;;;;5003357;28;20053;-80
2022/07/15 09:44:01;;;;;;;1.70;1.02;;;22.60;79.20;;;;;;4992571;28;20113;-81
2022/07/15 09:46:44;;;;;;;4.00;1.30;;;23.00;79.00;;;;;;5010040;28;20061;-81
2022/07/15 09:49:16;;;;;;;2.45;1.00;;;23.70;78.10;;;;;;5012081;28;20058;-81
2022/07/15 09:51:50;;;;;;;1.92;0.85;;;24.90;72.50;;;;;;5011802;28;20494;-80
2022/07/15 09:54:19;;;;;;;1.33;0.57;;;26.00;69.90;;;;;;5010236;28;20050;-81
2022/07/15 09:56:48;;;;;;;2.65;0.98;;;27.30;65.20;;;;;;4991231;28;20054;-81
2022/07/15 09:59:17;;;;;;;5.20;0.70;;;28.60;62.10;;;;;;4993679;28;20045;-82
2022/07/15 10:01:47;;;;;;;1.27;0.88;;;29.60;57.30;;;;;;4993513;28;20066;-81
2022/07/15 10:04:21;;;;;;;1.02;0.75;;;30.20;55.80;;;;;;4959102;28;20050;-81
2022/07/15 10:06:50;;;;;;;;;;;29.60;53.30;;;;;;4977743;28;20051;-81
2022/07/15 10:09:24;;;;;;;0.57;0.38;;;29.00;54.10;;;;;;4992153;28;20020;-82
2022/07/15 10:11:56;;;;;;;1.00;0.70;;;28.20;56.50;;;;;;4974826;28;20060;-82
2022/07/15 10:14:43;;;;;;;0.73;0.50;;;27.60;56.00;;;;;;4999000;28;20050;-82
2022/07/15 10:17:46;;;;;;;1.92;0.70;;;27.00;57.40;;;;;;5004013;28;20058;-80
2022/07/15 10:21:00;;;;;;;1.30;0.80;;;26.30;59.10;;;;;;5010900;28;20144;-82
2022/07/15 10:24:08;;;;;;;1.77;0.55;;;26.00;60.80;;;;;;4988564;28;20051;-81
2022/07/15 10:26:57;;;;;;;2.72;0.50;;;26.00;59.80;;;;;;4996693;28;20050;-81
2022/07/15 10:29:25;;;;;;;2.40;0.70;;;27.00;58.90;;;;;;5003569;28;20049;-81
2022/07/15 10:32:02;;;;;;;6.43;0.70;;;27.90;57.20;;;;;;5031305;28;20191;-81
2022/07/15 10:34:34;;;;;;;1.30;0.90;;;28.00;56.50;;;;;;5030569;28;20457;-81
2022/07/15 10:37:11;;;;;;;0.98;0.60;;;28.50;57.30;;;;;;5013638;28;20054;-81
2022/07/15 10:40:06;;;;;;;1.65;0.60;;;29.40;57.00;;;;;;5031942;28;20064;-81
2022/07/15 10:42:59;;;;;;;1.15;0.60;;;29.80;56.30;;;;;;5031566;28;20072;-81
2022/07/15 10:45:26;;;;;;;11.75;8.07;;;29.90;56.60;;;;;;5031819;28;20057;-81
2022/07/15 10:48:28;;;;;;;4.88;1.20;;;29.60;57.00;;;;;;5014792;28;20089;-80
2022/07/15 10:50:56;;;;;;;2.63;0.77;;;29.10;55.60;;;;;;5011243;28;20053;-81
2022/07/15 10:53:27;;;;;;;2.03;0.80;;;29.00;56.00;;;;;;4996090;28;20042;-88
2022/07/15 10:55:55;;;;;;;2.45;0.88;;;28.50;55.40;;;;;;5017043;28;20113;-89
2022/07/15 10:58:23;;;;;;;1.38;0.80;;;28.20;57.50;;;;;;5017971;28;20061;-88
2022/07/15 11:00:52;;;;;;;4.63;0.90;;;27.40;58.30;;;;;;4999195;28;20100;-87
2022/07/15 11:03:21;;;;;;;2.97;0.98;;;26.70;60.20;;;;;;4998238;28;20422;-87
2022/07/15 11:06:13;;;;;;;1.95;0.90;;;26.20;61.70;;;;;;5014395;28;20112;-86
2022/07/15 11:08:58;;;;;;;1.33;0.70;;;26.10;63.30;;;;;;4991521;28;20050;-83
2022/07/15 11:11:50;;;;;;;4.40;0.80;;;27.40;63.30;;;;;;4995045;28;20081;-85
2022/07/15 11:14:57;;;;;;;2.33;0.80;;;28.60;58.50;;;;;;4977434;28;20062;-86
2022/07/15 11:17:39;;;;;;;1.38;0.73;;;28.30;59.90;;;;;;4978456;28;20046;-85
2022/07/15 11:20:11;;;;;;;1.63;0.70;;;28.40;59.90;;;;;;4997770;28;20050;-86
2022/07/15 11:22:41;;;;;;;3.30;1.00;;;29.30;58.50;;;;;;5029916;28;20046;-84
2022/07/15 11:25:18;;;;;;;4.05;0.90;;;30.30;56.80;;;;;;5031376;28;20045;-82
2022/07/15 11:28:01;;;;;;;4.68;1.13;;;31.90;56.10;;;;;;4994124;28;20052;-83
2022/07/15 11:30:34;;;;;;;3.08;0.95;;;33.40;52.30;;;;;;4999860;28;20049;-83
2022/07/15 11:33:05;;;;;;;3.97;0.80;;;34.20;50.00;;;;;;5025132;28;20076;-83
2022/07/15 11:35:50;;;;;;;2.42;1.10;;;34.50;45.00;;;;;;4987311;28;20073;-83
2022/07/15 11:38:22;;;;;;;0.88;0.60;;;34.40;44.60;;;;;;5011562;28;20060;-82
2022/07/15 11:46:24;;;;;;;5.95;0.90;;;33.20;44.50;;;;;;5033144;28;20524;-80
2022/07/15 11:48:53;;;;;;;1.40;0.85;;;30.60;47.30;;;;;;4995950;28;20129;-81
2022/07/15 11:51:28;;;;;;;8.20;1.02;;;28.80;50.50;;;;;;4996834;28;20062;-81
2022/07/15 11:53:57;;;;;;;1.60;1.15;;;27.50;52.70;;;;;;4995919;28;20042;-81
2022/07/15 11:56:27;;;;;;;2.00;0.95;;;26.60;55.70;;;;;;4996225;28;20521;-82
2022/07/15 11:58:58;;;;;;;5.85;1.35;;;26.00;57.00;;;;;;5013915;28;20046;-83
2022/07/15 12:01:29;;;;;;;8.70;1.40;;;25.40;58.20;;;;;;5014044;28;20045;-82
2022/07/15 12:04:00;;;;;;;3.03;0.98;;;24.70;60.20;;;;;;5013783;28;20099;-82
2022/07/15 12:06:31;;;;;;;3.08;1.10;;;24.10;61.70;;;;;;4995453;28;20518;-82
2022/07/15 12:09:01;;;;;;;2.65;0.77;;;23.60;63.20;;;;;;5013758;28;20060;-81
2022/07/15 12:11:34;;;;;;;4.85;0.73;;;23.20;64.50;;;;;;5011951;28;20050;-81
2022/07/15 12:14:05;;;;;;;8.40;0.95;;;23.00;65.40;;;;;;5013949;28;20534;-81
2022/07/15 12:16:36;;;;;;;1.50;0.45;;;22.70;66.60;;;;;;5012757;28;20515;-81
2022/07/15 12:19:08;;;;;;;3.53;0.80;;;22.70;67.70;;;;;;5013336;28;20061;-80
2022/07/15 12:21:38;;;;;;;1.90;1.00;;;22.70;67.30;;;;;;5028064;28;20053;-80
2022/07/15 12:24:12;;;;;;;3.15;1.00;;;22.70;67.70;;;;;;5019250;28;20034;-82
2022/07/15 12:26:57;;;;;;;9.27;2.65;;;23.60;66.20;;;;;;5016263;28;20132;-81
2022/07/15 12:29:27;;;;;;;3.60;1.02;;;25.50;61.40;;;;;;5015430;28;20096;-81
2022/07/15 12:31:59;;;;;;;15.93;1.63;;;27.40;57.00;;;;;;5033143;28;20054;-81
2022/07/15 12:34:53;;;;;;;9.07;1.00;;;28.00;55.80;;;;;;5032715;28;20064;-83
2022/07/15 12:37:24;;;;;;;4.43;1.15;;;28.40;55.40;;;;;;5012568;28;20081;-82
2022/07/15 12:40:01;;;;;;;1.58;0.77;;;28.10;55.90;;;;;;4993768;28;20046;-82
2022/07/15 12:42:38;;;;;;;2.10;1.13;;;27.90;54.80;;;;;;5005512;28;20498;-81
2022/07/15 12:45:10;;;;;;;3.05;0.93;;;26.90;55.80;;;;;;5013485;28;20056;-81
2022/07/15 12:47:40;;;;;;;1.08;0.85;;;25.80;57.50;;;;;;4995565;28;20100;-81
2022/07/15 12:50:08;;;;;;;1.17;0.77;;;24.80;59.30;;;;;;5013217;28;20109;-81
2022/07/15 12:52:41;;;;;;;3.25;0.70;;;24.30;60.00;;;;;;5013423;28;20050;-81
2022/07/15 12:55:18;;;;;;;3.50;1.08;;;24.00;61.70;;;;;;4995616;28;20502;-82
2022/07/15 12:57:49;;;;;;;7.70;1.33;;;24.10;61.90;;;;;;5013066;28;20053;-82
2022/07/15 13:00:20;;;;;;;2.65;0.77;;;25.20;60.10;;;;;;5013254;28;20101;-84
2022/07/15 13:03:04;;;;;;;5.93;1.52;;;27.20;58.70;;;;;;4995611;28;20054;-82
2022/07/15 13:05:34;;;;;;;2.20;0.70;;;28.80;55.50;;;;;;4995375;28;20046;-83
2022/07/15 13:08:02;;;;;;;4.78;0.90;;;30.20;52.10;;;;;;5012585;28;20049;-80
2022/07/15 13:10:32;;;;;;;1.88;0.40;;;31.20;49.90;;;;;;5012923;28;20096;-81
2022/07/15 13:13:02;;;;;;;3.35;0.60;;;31.10;48.00;;;;;;4995758;28;20514;-81
2022/07/15 13:15:30;;;;;;;2.20;0.70;;;29.70;49.20;;;;;;5013002;28;20050;-81
2022/07/15 13:17:58;;;;;;;1.58;0.60;;;28.90;50.30;;;;;;4995272;28;20510;-81